Aviation Digital Data Service (ADDS)

Output produced by METARs form (1849 UTC 21 November 2014)
found at http://www.aviationweather.gov/adds/metars/
 
SEGU 211800Z 15005KT 9999 BKN026 BKN100 28/20 Q1012 NOSIG RMK A2988
SEGU 211626Z 2118/2218 06005KT 9999 SCT023 SCT100 
     FM220100 22010KT 9999 FEW020 BKN090 
     FM220600 22007KT 9999 BKN020 BKN080 
     FM221500 19005KT 9999 SCT020 BKN100 TX23/2120Z TN22/2210Z
       
SEMT 211800Z 21008KT 9999 BKN020 26/21 Q1013
SEMT 211626Z 2118/2218 21010KT 9999 SCT023 SCT090 
     FM220300 18005KT 9999 OVC020 
     FM221500 20010KT 9999 SCT023 SCT090 TX29/2120Z TN22/2210Z